createdAt,value
2017-01-01T00:00:23.483Z,96.54
2017-01-01T00:01:23.479Z,96.54
2017-01-01T00:02:23.503Z,97.01
2017-01-01T00:03:23.553Z,96.82
2017-01-01T00:04:23.471Z,96.73
2017-01-01T00:05:23.573Z,97.01
2017-01-01T00:06:23.497Z,96.73
2017-01-01T00:07:23.522Z,96.82
2017-01-01T00:08:23.596Z,96.58
2017-01-01T00:09:23.586Z,97.01
2017-01-01T00:10:23.645Z,96.96
2017-01-01T00:11:23.419Z,97.05
2017-01-01T00:12:23.551Z,97.34
2017-01-01T00:13:23.530Z,96.49
2017-01-01T00:14:23.481Z,97.34
2017-01-01T00:15:23.607Z,97.24
2017-01-01T00:16:23.487Z,96.96
2017-01-01T00:17:23.548Z,96.96
2017-01-01T00:18:23.514Z,97.62
2017-01-01T00:19:23.483Z,97.62
2017-01-01T00:20:23.467Z,97.62
2017-01-01T00:21:23.530Z,97.62
2017-01-01T00:22:23.459Z,97.43
2017-01-01T00:23:23.402Z,97.34
2017-01-01T00:24:23.454Z,97.72
2017-01-01T00:25:23.566Z,97.62
2017-01-01T00:26:23.656Z,97.91
2017-01-01T00:27:23.583Z,98
2017-01-01T00:28:23.462Z,97.72
2017-01-01T00:29:23.532Z,97.81
2017-01-01T00:30:23.676Z,97.81
2017-01-01T00:31:23.432Z,97.91
2017-01-01T00:32:23.478Z,97.62
2017-01-01T00:33:23.543Z,97.62
2017-01-01T00:34:33.545Z,97.62
2017-01-01T00:35:23.638Z,97.81
2017-01-01T00:36:23.449Z,97.72
2017-01-01T00:37:23.597Z,97.53
2017-01-01T00:38:23.539Z,97.53
2017-01-01T00:39:23.337Z,97.62
2017-01-01T00:40:23.542Z,97.53
2017-01-01T00:41:23.390Z,97.62
2017-01-01T00:42:23.456Z,97.53
2017-01-01T00:43:23.407Z,97.81
2017-01-01T00:44:23.530Z,97.72
2017-01-01T00:45:23.543Z,97.62
2017-01-01T00:46:23.520Z,97.72
2017-01-01T00:47:23.549Z,97.81
2017-01-01T00:48:23.597Z,97.53
2017-01-01T00:49:24.063Z,97.43
2017-01-01T00:50:23.653Z,97.34
2017-01-01T00:51:23.735Z,97.53
2017-01-01T00:52:23.492Z,97.53
2017-01-01T00:53:23.519Z,97.43
2017-01-01T00:54:23.452Z,97.34
2017-01-01T00:55:23.574Z,97.48
2017-01-01T00:56:23.572Z,97.01
2017-01-01T00:57:23.490Z,97.29
2017-01-01T00:58:23.557Z,97.39
2017-01-01T00:59:23.581Z,96.73
2017-01-01T01:00:23.557Z,97.1
2017-01-01T01:01:23.555Z,96.82
2017-01-01T01:02:23.428Z,96.82
2017-01-01T01:03:23.505Z,97.48
2017-01-01T01:04:23.436Z,97.01
2017-01-01T01:05:23.449Z,97.29
2017-01-01T01:06:23.512Z,97.29
2017-01-01T01:07:23.462Z,97.2
2017-01-01T01:08:23.549Z,97.58
2017-01-01T01:09:23.592Z,97.48
2017-01-01T01:10:23.464Z,97.67
2017-01-01T01:11:23.604Z,98.14
2017-01-01T01:12:23.496Z,98.43
2017-01-01T01:13:23.608Z,98.71
2017-01-01T01:14:23.670Z,98.43
2017-01-01T01:15:23.669Z,98.61
2017-01-01T01:16:23.679Z,98.8
2017-01-01T01:17:23.524Z,98.33
2017-01-01T01:18:23.676Z,98.52
2017-01-01T01:19:23.463Z,98.43
2017-01-01T01:20:23.481Z,99.27
2017-01-01T01:21:23.526Z,99.18
2017-01-01T01:22:23.565Z,99.08
2017-01-01T01:26:53.046Z,99.46
2017-01-01T01:27:53.113Z,99.46
2017-01-01T01:28:52.940Z,99.65
2017-01-01T01:29:53.133Z,99.56
2017-01-01T01:30:52.892Z,99.75
2017-01-01T01:31:53.138Z,99.56
2017-01-01T01:32:52.915Z,99.65
2017-01-01T01:33:52.980Z,99.84
2017-01-01T01:34:53.996Z,99.84
2017-01-01T01:35:53.170Z,99.94
2017-01-01T01:36:53.136Z,99.84
2017-01-01T01:37:53.072Z,99.65
2017-01-01T01:38:52.962Z,99.65
2017-01-01T01:39:53.075Z,99.65
2017-01-01T01:40:53.009Z,99.46
2017-01-01T01:41:53.129Z,99.75
2017-01-01T01:42:53.080Z,99.75
2017-01-01T01:43:53.051Z,99.65
2017-01-01T01:44:53.080Z,99.84
2017-01-01T01:45:52.953Z,99.27
2017-01-01T01:46:53.001Z,99.46
2017-01-01T01:47:53.013Z,99.08
2017-01-01T01:48:53.019Z,98.99
2017-01-01T01:49:53.088Z,98.99
2017-01-01T01:50:53.040Z,99.08
2017-01-01T01:51:53.026Z,98.99
2017-01-01T01:52:53.090Z,99.08
2017-01-01T01:53:53.139Z,99.18
2017-01-01T01:54:52.951Z,99.18
2017-01-01T01:55:52.987Z,99.08
2017-01-01T01:56:53.041Z,98.9
2017-01-01T01:57:52.972Z,98.99
2017-01-01T01:58:52.933Z,99.56
2017-01-01T02:03:22.761Z,99.18
2017-01-01T02:04:22.743Z,98.9
2017-01-01T02:05:22.934Z,99.08
2017-01-01T02:06:22.788Z,99.18
2017-01-01T02:07:22.800Z,98.71
2017-01-01T02:08:22.856Z,99.18
2017-01-01T02:09:22.865Z,98.9
2017-01-01T02:10:22.742Z,98.8
2017-01-01T02:11:22.805Z,98.43
2017-01-01T02:12:22.732Z,98.61
2017-01-01T02:13:22.877Z,98.61
2017-01-01T02:14:22.774Z,97.96
2017-01-01T02:15:22.826Z,98.05
2017-01-01T02:16:22.774Z,97.96
2017-01-01T02:17:22.817Z,97.48
2017-01-01T02:18:22.790Z,97.1
2017-01-01T02:19:22.878Z,96.63
2017-01-01T02:20:22.710Z,96.35
2017-01-01T02:21:22.958Z,96.54
2017-01-01T02:22:22.793Z,96.35
2017-01-01T02:23:22.852Z,96.82
2017-01-01T02:24:22.848Z,96.25
2017-01-01T02:25:22.790Z,95.68
2017-01-01T02:26:22.809Z,95.68
2017-01-01T02:27:22.837Z,95.59
2017-01-01T02:28:22.783Z,95.31
2017-01-01T02:29:22.820Z,95.4
2017-01-01T02:30:23.494Z,95.5
2017-01-01T02:31:22.802Z,95.21
2017-01-01T02:32:22.709Z,94.93
2017-01-01T02:33:22.867Z,94.65
2017-01-01T02:34:22.778Z,94.74
2017-01-01T02:35:22.729Z,94.93
2017-01-01T02:36:22.915Z,94.84
2017-01-01T02:37:22.752Z,94.46
2017-01-01T02:38:22.797Z,94.18
2017-01-01T02:39:22.829Z,94.93
2017-01-01T02:40:22.746Z,94.93
2017-01-01T02:41:22.901Z,94.56
2017-01-01T02:42:22.750Z,94.74
2017-01-01T02:43:22.931Z,94.56
2017-01-01T02:44:22.845Z,94.46
2017-01-01T02:45:22.954Z,94.37
2017-01-01T02:46:22.816Z,94.37
2017-01-01T02:47:22.828Z,94.65
2017-01-01T02:48:22.788Z,94.56
2017-01-01T02:49:22.785Z,94.56
2017-01-01T02:50:22.806Z,94.65
2017-01-01T02:51:22.928Z,94.08
2017-01-01T02:52:22.833Z,94.56
2017-01-01T02:53:23.018Z,94.46
2017-01-01T02:54:22.869Z,94.08
2017-01-01T02:55:22.808Z,94.46
2017-01-01T02:56:22.776Z,94.27
2017-01-01T02:57:22.842Z,94.65
2017-01-01T02:58:22.836Z,94.74
2017-01-01T02:59:22.886Z,94.93
2017-01-01T03:00:22.865Z,94.74
2017-01-01T03:01:22.883Z,94.65
2017-01-01T03:02:22.756Z,94.65
2017-01-01T03:03:22.844Z,94.93
2017-01-01T03:04:22.782Z,94.08
2017-01-01T03:05:22.899Z,95.21
2017-01-01T03:06:22.817Z,94.74
2017-01-01T03:07:22.897Z,94.93
2017-01-01T03:08:22.934Z,94.93
2017-01-01T03:09:22.928Z,94.93
2017-01-01T03:10:22.768Z,95.21
2017-01-01T03:11:22.833Z,95.4
2017-01-01T03:12:22.774Z,95.12
2017-01-01T03:13:22.859Z,95.87
2017-01-01T03:14:22.764Z,95.59
2017-01-01T03:15:22.761Z,96.06
2017-01-01T03:16:22.808Z,95.78
2017-01-01T03:17:22.906Z,96.16
2017-01-01T03:18:22.809Z,95.5
2017-01-01T03:19:22.879Z,96.06
2017-01-01T03:20:22.823Z,95.97
2017-01-01T03:21:22.985Z,95.97
2017-01-01T03:22:22.770Z,95.78
2017-01-01T03:23:22.945Z,95.68
2017-01-01T03:24:22.856Z,95.87
2017-01-01T03:25:22.933Z,95.78
2017-01-01T03:26:22.788Z,96.16
2017-01-01T03:27:22.850Z,95.68
2017-01-01T03:28:22.865Z,96.06
2017-01-01T03:29:23.067Z,95.78
2017-01-01T03:30:22.816Z,95.68
2017-01-01T03:31:22.803Z,95.87
2017-01-01T03:32:22.845Z,95.4
2017-01-01T03:33:22.979Z,95.68
2017-01-01T03:34:22.833Z,95.21
2017-01-01T03:35:22.792Z,95.21
2017-01-01T03:36:22.786Z,94.93
2017-01-01T03:37:23.035Z,95.12
2017-01-01T03:38:22.924Z,95.12
2017-01-01T03:39:22.882Z,95.31
2017-01-01T03:40:22.775Z,95.59
2017-01-01T03:41:22.942Z,95.21
2017-01-01T03:42:22.823Z,95.21
2017-01-01T03:43:22.981Z,95.59
2017-01-01T03:44:22.791Z,96.16
2017-01-01T03:45:22.914Z,95.68
2017-01-01T03:46:22.825Z,95.97
2017-01-01T03:47:22.774Z,96.06
2017-01-01T03:48:22.855Z,96.16
2017-01-01T03:49:22.890Z,96.06
2017-01-01T03:50:22.814Z,96.16
2017-01-01T03:51:22.918Z,96.16
2017-01-01T03:52:22.772Z,95.97
2017-01-01T03:53:22.913Z,96.54
2017-01-01T03:54:22.783Z,96.63
2017-01-01T03:55:22.792Z,96.73
2017-01-01T03:56:22.814Z,96.06
2017-01-01T03:57:22.874Z,96.35
2017-01-01T03:58:22.852Z,96.63
2017-01-01T03:59:22.793Z,96.44
2017-01-01T04:00:22.780Z,96.35
2017-01-01T04:01:22.799Z,96.63
2017-01-01T04:02:22.845Z,96.73
2017-01-01T04:03:23.005Z,96.44
2017-01-01T04:04:22.812Z,96.35
2017-01-01T04:05:22.832Z,95.68
2017-01-01T04:06:22.801Z,95.97
2017-01-01T04:07:22.908Z,95.87
2017-01-01T04:08:22.875Z,96.54
2017-01-01T04:09:22.916Z,96.54
2017-01-01T04:10:22.827Z,96.35
2017-01-01T04:11:22.888Z,96.06
2017-01-01T04:12:22.828Z,95.87
2017-01-01T04:13:23.001Z,95.5
2017-01-01T04:14:22.788Z,95.31
2017-01-01T04:15:22.997Z,95.03
2017-01-01T04:16:22.837Z,94.93
2017-01-01T04:17:22.876Z,94.74
2017-01-01T04:18:22.898Z,95.12
2017-01-01T04:19:22.848Z,95.03
2017-01-01T04:20:22.837Z,94.93
2017-01-01T04:21:22.893Z,95.03
2017-01-01T04:22:22.846Z,95.03
2017-01-01T04:23:23.026Z,94.74
2017-01-01T04:24:22.870Z,94.46
2017-01-01T04:25:23.034Z,94.08
2017-01-01T04:26:22.845Z,94.37
2017-01-01T04:27:22.892Z,93.89
2017-01-01T04:28:22.866Z,93.8
2017-01-01T04:29:23.036Z,93.89
2017-01-01T04:30:22.950Z,93.89
2017-01-01T04:31:23.066Z,94.08
2017-01-01T04:32:22.909Z,93.61
2017-01-01T04:33:23.043Z,93.04
2017-01-01T04:34:22.828Z,93.23
2017-01-01T04:35:22.938Z,93.23
2017-01-01T04:36:22.846Z,93.13
2017-01-01T04:37:22.938Z,93.32
2017-01-01T04:38:22.873Z,93.7
2017-01-01T04:39:22.867Z,93.51
2017-01-01T04:40:22.815Z,93.23
2017-01-01T04:41:23.016Z,93.51
2017-01-01T04:42:22.967Z,93.04
2017-01-01T04:43:22.997Z,93.42
2017-01-01T04:44:22.887Z,93.61
2017-01-01T04:45:22.996Z,93.32
2017-01-01T04:46:23.010Z,92.94
2017-01-01T04:47:22.992Z,93.04
2017-01-01T04:48:23.096Z,92.66
2017-01-01T04:49:22.970Z,92.94
2017-01-01T04:50:22.849Z,92.76
2017-01-01T04:51:23.013Z,92.76
2017-01-01T04:52:22.877Z,92.76
2017-01-01T04:53:23.058Z,93.04
2017-01-01T04:54:22.934Z,93.51
2017-01-01T04:55:22.959Z,93.37
2017-01-01T04:56:22.890Z,92.94
2017-01-01T04:57:22.878Z,93.13
2017-01-01T04:58:22.971Z,92.38
2017-01-01T04:59:22.902Z,92.19
2017-01-01T05:00:22.867Z,92.76
2017-01-01T05:01:23.010Z,93.13
2017-01-01T05:02:22.851Z,92.85
2017-01-01T05:03:23.052Z,92.76
2017-01-01T05:04:22.935Z,93.13
2017-01-01T05:05:23.021Z,92.57
2017-01-01T05:06:22.878Z,91.91
2017-01-01T05:07:22.940Z,92.76
2017-01-01T05:08:22.975Z,93.13
2017-01-01T05:09:23.006Z,92.76
2017-01-01T05:10:22.917Z,92.85
2017-01-01T05:11:22.929Z,93.23
2017-01-01T05:12:22.906Z,92.9
2017-01-01T05:13:22.979Z,92.71
2017-01-01T05:14:22.879Z,92.57
2017-01-01T05:15:22.885Z,92.9
2017-01-01T05:16:22.869Z,92.29
2017-01-01T05:17:22.878Z,93.04
2017-01-01T05:18:22.930Z,92.76
2017-01-01T05:19:23.061Z,92.47
2017-01-01T05:20:22.957Z,92.57
2017-01-01T05:21:23.060Z,92.57
2017-01-01T05:22:22.899Z,92.57
2017-01-01T05:23:23.123Z,92.43
2017-01-01T05:24:22.951Z,92.29
2017-01-01T05:25:22.940Z,92.33
2017-01-01T05:26:22.944Z,92.38
2017-01-01T05:27:23.045Z,92.19
2017-01-01T05:28:22.958Z,92.1
2017-01-01T05:29:22.966Z,92.57
2017-01-01T05:30:22.968Z,92
2017-01-01T05:31:22.945Z,92.29
2017-01-01T05:32:23.025Z,92.57
2017-01-01T05:33:22.989Z,92.57
2017-01-01T05:34:22.897Z,92.29
2017-01-01T05:35:23.066Z,92.66
2017-01-01T05:36:22.887Z,92.38
2017-01-01T05:37:22.997Z,92.57
2017-01-01T05:38:22.963Z,92.94
2017-01-01T05:39:22.930Z,93.28
2017-01-01T05:40:22.921Z,93.13
2017-01-01T05:41:22.981Z,92.9
2017-01-01T05:42:22.930Z,92.43
2017-01-01T05:43:23.007Z,92.38
2017-01-01T05:44:22.930Z,92.24
2017-01-01T05:45:23.068Z,92.47
2017-01-01T05:46:22.999Z,91.91
2017-01-01T05:47:23.058Z,92.47
2017-01-01T05:48:22.962Z,92.29
2017-01-01T05:49:23.098Z,92.38
2017-01-01T05:50:22.969Z,92.1
2017-01-01T05:51:23.140Z,92.1
2017-01-01T05:52:22.962Z,92.38
2017-01-01T05:53:23.068Z,92.85
2017-01-01T05:54:22.948Z,92.47
2017-01-01T05:55:23.017Z,92.85
2017-01-01T05:56:22.928Z,92.8
2017-01-01T05:57:22.969Z,92.61
2017-01-01T05:58:22.991Z,92.94
2017-01-01T05:59:23.079Z,92.38
2017-01-01T06:00:22.943Z,92.85
2017-01-01T06:01:23.076Z,92.94
2017-01-01T06:02:22.945Z,92.57
2017-01-01T06:03:23.108Z,92.99
2017-01-01T06:04:22.959Z,92.61
2017-01-01T06:05:23.103Z,92.76
2017-01-01T06:06:22.946Z,92.94
2017-01-01T06:07:23.025Z,92.76
2017-01-01T06:08:22.990Z,92.76
2017-01-01T06:09:23.129Z,92.19
2017-01-01T06:10:22.946Z,92.47
2017-01-01T06:11:23.003Z,92.33
2017-01-01T06:12:22.969Z,92.57
2017-01-01T06:13:23.048Z,92.61
2017-01-01T06:14:23.091Z,92.29
2017-01-01T06:15:23.110Z,92
2017-01-01T06:16:22.949Z,92
2017-01-01T06:17:22.960Z,92.19
2017-01-01T06:18:23.059Z,92.8
2017-01-01T06:19:23.102Z,92.76
2017-01-01T06:20:23.092Z,92.66
2017-01-01T06:21:23.009Z,92.47
2017-01-01T06:22:23.019Z,92.29
2017-01-01T06:23:22.991Z,92.38
2017-01-01T06:24:22.958Z,92.52
2017-01-01T06:25:23.077Z,92.38
2017-01-01T06:26:22.991Z,92.43
2017-01-01T06:27:23.081Z,92.57
2017-01-01T06:28:23.062Z,92.47
2017-01-01T06:29:23.082Z,92.24
2017-01-01T06:30:22.985Z,92.43
2017-01-01T06:31:23.082Z,92.47
2017-01-01T06:32:23.035Z,92.38
2017-01-01T06:33:23.001Z,92.1
2017-01-01T06:34:23.018Z,92.05
2017-01-01T06:35:23.005Z,92.19
2017-01-01T06:36:23.046Z,92.47
2017-01-01T06:37:23.089Z,91.91
2017-01-01T06:38:22.979Z,92.71
2017-01-01T06:39:23.032Z,92.24
2017-01-01T06:40:22.997Z,92.14
2017-01-01T06:41:23.106Z,92.24
2017-01-01T06:42:23.027Z,92.24
2017-01-01T06:43:23.089Z,92.14
2017-01-01T06:44:23.042Z,92.61
2017-01-01T06:45:23.120Z,92.05
2017-01-01T06:46:23.052Z,92.14
2017-01-01T06:47:23.143Z,92.52
2017-01-01T06:48:23.079Z,92.05
2017-01-01T06:49:23.125Z,92.24
2017-01-01T06:50:23.002Z,92.43
2017-01-01T06:51:23.209Z,92.52
2017-01-01T06:52:23.022Z,92.33
2017-01-01T06:53:23.643Z,92.14
2017-01-01T06:54:23.059Z,92.05
2017-01-01T06:55:23.048Z,92.61
2017-01-01T06:56:23.017Z,92.05
2017-01-01T06:57:23.099Z,92.05
2017-01-01T06:58:23.105Z,92.14
2017-01-01T06:59:23.228Z,91.48
2017-01-01T07:00:23.063Z,91.67
2017-01-01T07:01:23.193Z,92.24
2017-01-01T07:02:23.047Z,92.43
2017-01-01T07:03:23.130Z,91.96
2017-01-01T07:04:23.111Z,91.86
2017-01-01T07:05:23.162Z,92.05
2017-01-01T07:06:23.041Z,91.67
2017-01-01T07:07:23.100Z,91.58
2017-01-01T07:08:23.074Z,91.77
2017-01-01T07:09:23.114Z,91.58
2017-01-01T07:10:23.029Z,91.77
2017-01-01T07:11:23.131Z,91.86
2017-01-01T07:12:23.068Z,91.67
2017-01-01T07:13:23.106Z,91.1
2017-01-01T07:14:23.045Z,91.39
2017-01-01T07:15:23.018Z,91.77
2017-01-01T07:16:23.091Z,91.48
2017-01-01T07:17:23.273Z,91.39
2017-01-01T07:18:23.049Z,91.67
2017-01-01T07:19:23.178Z,91.86
2017-01-01T07:20:23.068Z,91.48
2017-01-01T07:21:23.184Z,91.77
2017-01-01T07:22:23.039Z,91.96
2017-01-01T07:23:23.174Z,91.58
2017-01-01T07:24:23.050Z,91.58
2017-01-01T07:25:23.227Z,91.77
2017-01-01T07:26:23.060Z,91.48
2017-01-01T07:27:23.129Z,91.48
2017-01-01T07:28:23.061Z,91.58
2017-01-01T07:29:23.276Z,91.67
2017-01-01T07:30:23.055Z,91.39
2017-01-01T07:31:23.180Z,91.29
2017-01-01T07:32:23.094Z,90.35
2017-01-01T07:33:23.200Z,90.44
2017-01-01T07:34:23.054Z,90.35
2017-01-01T07:35:23.217Z,90.35
2017-01-01T07:36:23.120Z,90.54
2017-01-01T07:37:23.139Z,90.44
2017-01-01T07:38:23.224Z,90.44
2017-01-01T07:39:23.169Z,90.44
2017-01-01T07:40:23.125Z,90.63
2017-01-01T07:41:23.230Z,90.54
2017-01-01T07:42:23.152Z,90.35
2017-01-01T07:43:23.251Z,90.06
2017-01-01T07:44:23.079Z,90.06
2017-01-01T07:45:23.190Z,90.25
2017-01-01T07:46:23.091Z,90.44
2017-01-01T07:47:23.211Z,90.44
2017-01-01T07:48:23.110Z,90.73
2017-01-01T07:49:23.210Z,90.44
2017-01-01T07:50:23.215Z,90.44
2017-01-01T07:51:23.171Z,90.63
2017-01-01T07:52:23.119Z,90.63
2017-01-01T07:53:23.152Z,90.82
2017-01-01T07:54:23.093Z,90.54
2017-01-01T07:55:23.220Z,90.35
2017-01-01T07:56:23.070Z,90.35
2017-01-01T07:57:24.471Z,90.44
2017-01-01T07:58:23.079Z,90.44
2017-01-01T07:59:23.315Z,89.69
2017-01-01T08:00:23.167Z,90.16
2017-01-01T08:01:23.109Z,90.35
2017-01-01T08:02:23.169Z,89.97
2017-01-01T08:03:23.148Z,89.69
2017-01-01T08:04:23.125Z,89.78
2017-01-01T08:05:23.231Z,89.69
2017-01-01T08:06:23.182Z,89.97
2017-01-01T08:07:23.166Z,89.87
2017-01-01T08:08:23.249Z,89.4
2017-01-01T08:09:23.263Z,89.22
2017-01-01T08:10:23.098Z,89.59
2017-01-01T08:11:23.258Z,89.78
2017-01-01T08:12:23.097Z,89.78
2017-01-01T08:13:23.206Z,89.87
2017-01-01T08:14:23.181Z,90.06
2017-01-01T08:15:23.119Z,89.78
2017-01-01T08:16:23.167Z,89.87
2017-01-01T08:17:23.320Z,89.97
2017-01-01T08:18:23.204Z,89.5
2017-01-01T08:19:23.201Z,89.4
2017-01-01T08:20:23.137Z,89.22
2017-01-01T08:21:23.267Z,89.31
2017-01-01T08:22:23.162Z,89.59
2017-01-01T08:23:23.403Z,89.12
2017-01-01T08:24:23.721Z,89.59
2017-01-01T08:25:23.174Z,89.03
2017-01-01T08:26:23.207Z,89.4
2017-01-01T08:27:23.282Z,89.31
2017-01-01T08:28:23.285Z,89.5
2017-01-01T08:29:23.159Z,89.5
2017-01-01T08:30:23.285Z,89.5
2017-01-01T08:31:23.215Z,89.22
2017-01-01T08:32:23.163Z,89.4
2017-01-01T08:33:23.219Z,89.31
2017-01-01T08:34:23.171Z,89.03
2017-01-01T08:35:23.152Z,89.12
2017-01-01T08:36:23.104Z,89.03
2017-01-01T08:37:23.274Z,88.84
2017-01-01T08:38:23.137Z,89.22
2017-01-01T08:39:23.291Z,88.93
2017-01-01T08:40:23.207Z,89.22
2017-01-01T08:41:23.149Z,89.03
2017-01-01T08:42:23.187Z,88.55
2017-01-01T08:43:23.245Z,88.74
2017-01-01T08:44:23.146Z,88.74
2017-01-01T08:45:23.189Z,88.55
2017-01-01T08:46:23.234Z,88.36
2017-01-01T08:47:23.228Z,88.27
2017-01-01T08:48:23.258Z,88.93
2017-01-01T08:49:23.189Z,88.36
2017-01-01T08:50:23.187Z,88.5
2017-01-01T08:51:23.319Z,88.6
2017-01-01T08:52:23.233Z,88.5
2017-01-01T08:53:23.586Z,88.41
2017-01-01T08:54:23.368Z,88.69
2017-01-01T08:55:23.315Z,88.41
2017-01-01T08:56:23.209Z,88.6
2017-01-01T08:57:23.339Z,88.88
2017-01-01T08:58:23.238Z,88.79
2017-01-01T08:59:23.405Z,88.69
2017-01-01T09:00:23.197Z,88.12
2017-01-01T09:01:23.281Z,88.12
2017-01-01T09:02:23.261Z,88.5
2017-01-01T09:03:23.284Z,88.12
2017-01-01T09:04:23.171Z,88.69
2017-01-01T09:05:23.411Z,87.93
2017-01-01T09:06:23.396Z,88.5
2017-01-01T09:07:23.261Z,88.22
2017-01-01T09:08:23.192Z,88.41
2017-01-01T09:09:23.367Z,88.12
2017-01-01T09:10:23.251Z,88.69
2017-01-01T09:11:23.275Z,87.93
2017-01-01T09:12:23.191Z,87.74
2017-01-01T09:13:23.361Z,87.84
2017-01-01T09:14:23.313Z,87.55
2017-01-01T09:15:23.263Z,87.46
2017-01-01T09:16:23.308Z,87.37
2017-01-01T09:17:23.538Z,87.46
2017-01-01T09:18:23.236Z,87.08
2017-01-01T09:19:23.294Z,87.27
2017-01-01T09:20:23.277Z,86.71
2017-01-01T09:21:23.237Z,86.42
2017-01-01T09:22:23.301Z,86.52
2017-01-01T09:23:23.389Z,86.04
2017-01-01T09:24:23.315Z,85.95
2017-01-01T09:25:23.256Z,85.76
2017-01-01T09:26:23.285Z,85.76
2017-01-01T09:27:23.272Z,85.28
2017-01-01T09:28:23.294Z,85.38
2017-01-01T09:29:23.246Z,84.72
2017-01-01T09:30:23.198Z,85.57
2017-01-01T09:31:23.270Z,85.19
2017-01-01T09:32:23.301Z,85
2017-01-01T09:33:23.384Z,85.38
2017-01-01T09:34:23.279Z,85.19
2017-01-01T09:35:23.417Z,85.57
2017-01-01T09:36:23.210Z,85.57
2017-01-01T09:37:23.459Z,85.57
2017-01-01T09:38:23.269Z,85.19
2017-01-01T09:39:23.316Z,84.91
2017-01-01T09:40:23.220Z,84.86
2017-01-01T09:41:23.457Z,84.58
2017-01-01T09:42:23.238Z,84.67
2017-01-01T09:43:23.364Z,84.67
2017-01-01T09:44:23.308Z,83.91
2017-01-01T09:45:23.268Z,83.72
2017-01-01T09:46:23.367Z,83.34
2017-01-01T09:47:23.296Z,83.53
2017-01-01T09:48:23.227Z,83.44
2017-01-01T09:49:23.335Z,82.68
2017-01-01T09:50:23.441Z,82.5
2017-01-01T09:51:23.224Z,81.74
2017-01-01T09:52:23.344Z,81.26
2017-01-01T09:53:23.374Z,79.79
2017-01-01T09:54:23.382Z,79.41
2017-01-01T09:55:23.267Z,77.94
2017-01-01T09:56:23.289Z,76.42
2017-01-01T09:57:23.477Z,76.14
2017-01-01T09:58:23.413Z,75.85
2017-01-01T09:59:23.412Z,74.81
2017-01-01T10:00:23.239Z,75.13
2017-01-01T10:01:23.320Z,74.37
2017-01-01T10:02:23.402Z,73.71
2017-01-01T10:03:23.497Z,73.14
2017-01-01T10:04:23.265Z,72.57
2017-01-01T10:05:23.325Z,72.38
2017-01-01T10:06:23.427Z,71.57
2017-01-01T10:07:23.411Z,71.66
2017-01-01T10:08:23.580Z,70.62
2017-01-01T10:09:23.473Z,70.24
2017-01-01T10:10:23.364Z,70.05
2017-01-01T10:11:23.331Z,69.86
2017-01-01T10:12:23.357Z,69.77
2017-01-01T10:13:23.270Z,69.38
2017-01-01T10:14:23.371Z,69.86
2017-01-01T10:15:23.380Z,70.24
2017-01-01T10:16:23.330Z,70.53
2017-01-01T10:17:23.343Z,71.44
2017-01-01T10:18:23.343Z,72.57
2017-01-01T10:19:23.452Z,72.86
2017-01-01T10:20:23.396Z,74.05
2017-01-01T10:21:23.473Z,74.33
2017-01-01T10:22:23.428Z,75
2017-01-01T10:23:23.570Z,74.9
2017-01-01T10:24:23.458Z,75.57
2017-01-01T10:25:23.376Z,75.95
2017-01-01T10:26:23.411Z,76.51
2017-01-01T10:27:23.505Z,76.86
2017-01-01T10:28:23.510Z,77.33
2017-01-01T10:29:23.513Z,77.42
2017-01-01T10:30:23.542Z,77.99
2017-01-01T10:31:23.404Z,77.7
2017-01-01T10:32:23.547Z,77.8
2017-01-01T10:33:23.402Z,77.89
2017-01-01T10:34:23.344Z,78.08
2017-01-01T10:35:23.481Z,78.75
2017-01-01T10:36:23.466Z,79.03
2017-01-01T10:37:23.468Z,79.32
2017-01-01T10:38:23.352Z,79.22
2017-01-01T10:39:23.394Z,79.75
2017-01-01T10:40:23.477Z,79.5
2017-01-01T10:41:23.403Z,79.75
2017-01-01T10:42:23.416Z,80.32
2017-01-01T10:43:23.443Z,80.79
2017-01-01T10:44:23.742Z,80.41
2017-01-01T10:45:23.544Z,80.69
2017-01-01T10:46:23.370Z,80.79
2017-01-01T10:47:23.445Z,80.79
2017-01-01T10:48:23.428Z,80.88
2017-01-01T10:49:23.493Z,80.98
2017-01-01T10:50:23.824Z,80.88
2017-01-01T10:51:23.709Z,80.79
2017-01-01T10:52:23.762Z,80.98
2017-01-01T10:53:23.628Z,81.07
2017-01-01T10:54:23.761Z,80.88
2017-01-01T10:55:23.754Z,80.79
2017-01-01T10:56:23.806Z,81.17
2017-01-01T10:57:24.035Z,80.98
2017-01-01T10:58:23.934Z,81.55
2017-01-01T10:59:23.515Z,81.55
2017-01-01T11:00:23.580Z,81.36
2017-01-01T11:01:24.299Z,81.93
2017-01-01T11:02:23.753Z,81.74
2017-01-01T11:03:23.588Z,81.45
2017-01-01T11:04:24.586Z,81.55
2017-01-01T11:05:23.588Z,81.64
2017-01-01T11:06:23.603Z,81.74
2017-01-01T11:07:23.738Z,81.55
2017-01-01T11:08:23.591Z,81.17
2017-01-01T11:09:23.541Z,81.07
2017-01-01T11:10:23.505Z,81.07
2017-01-01T11:11:23.647Z,80.98
2017-01-01T11:12:23.704Z,80.88
2017-01-01T11:13:23.750Z,80.74
2017-01-01T11:14:23.619Z,80.79
2017-01-01T11:15:23.804Z,80.74
2017-01-01T11:16:23.935Z,80.55
2017-01-01T11:17:23.989Z,79.69
2017-01-01T11:18:23.766Z,79.32
2017-01-01T11:19:23.705Z,78.46
2017-01-01T11:20:23.738Z,77.89
2017-01-01T11:21:23.693Z,76.95
2017-01-01T11:22:23.494Z,76.38
2017-01-01T11:23:23.843Z,75.66
2017-01-01T11:24:23.922Z,75
2017-01-01T11:25:23.572Z,74.43
2017-01-01T11:26:23.872Z,74.24
2017-01-01T11:27:23.809Z,73.68
2017-01-01T11:28:23.820Z,72.82
2017-01-01T11:29:23.735Z,72.82
2017-01-01T11:30:23.805Z,72.19
2017-01-01T11:31:23.782Z,71.15
2017-01-01T11:32:23.664Z,71.44
2017-01-01T11:33:23.768Z,71.34
2017-01-01T11:34:23.888Z,70.68
2017-01-01T11:35:23.680Z,70.68
2017-01-01T11:39:53.477Z,70.58
2017-01-01T11:40:53.168Z,70.2
2017-01-01T11:41:53.240Z,70.3
2017-01-01T11:42:53.130Z,70.11
2017-01-01T11:43:53.111Z,70.39
2017-01-01T11:45:03.067Z,70.39
2017-01-01T11:45:52.957Z,70.87
2017-01-01T11:46:53.373Z,70.49
2017-01-01T11:47:53.299Z,70.11
2017-01-01T11:48:53.329Z,70.68
2017-01-01T11:49:53.364Z,70.49
2017-01-01T11:50:53.180Z,70.49
2017-01-01T11:51:53.199Z,70.3
2017-01-01T11:52:53.135Z,70.49
2017-01-01T11:53:53.084Z,70.68
2017-01-01T11:54:53.157Z,70.78
2017-01-01T11:55:53.061Z,71.15
2017-01-01T11:56:53.006Z,70.58
2017-01-01T11:57:52.941Z,71.25
2017-01-01T11:58:52.932Z,71.06
2017-01-01T11:59:53.125Z,71.25
2017-01-01T12:00:53.013Z,71.25
2017-01-01T12:01:53.018Z,71.06
2017-01-01T12:02:52.987Z,70.78
2017-01-01T12:03:53.099Z,70.68
2017-01-01T12:04:52.974Z,71.15
2017-01-01T12:05:53.064Z,70.68
2017-01-01T12:06:53.038Z,70.78
2017-01-01T12:07:52.945Z,70.39
2017-01-01T12:08:52.999Z,70.11
2017-01-01T12:09:52.877Z,70.2
2017-01-01T12:10:52.849Z,70.49
2017-01-01T12:11:52.954Z,70.39
2017-01-01T12:12:52.915Z,69.92
2017-01-01T12:13:53.580Z,70.01
2017-01-01T12:14:53.012Z,70.11
2017-01-01T12:15:52.906Z,70.01
2017-01-01T12:16:52.969Z,69.64
2017-01-01T12:17:52.963Z,69.26
2017-01-01T12:18:53.071Z,69.64
2017-01-01T12:19:53.002Z,70.01
2017-01-01T12:20:52.858Z,70.11
2017-01-01T12:21:53.549Z,70.11
2017-01-01T12:22:52.944Z,70.3
2017-01-01T12:23:52.822Z,70.01
2017-01-01T12:24:52.911Z,70.58
2017-01-01T12:25:52.885Z,70.68
2017-01-01T12:26:52.972Z,70.39
2017-01-01T12:27:52.919Z,70.2
2017-01-01T12:28:52.978Z,70.49
2017-01-01T12:29:53.010Z,71.25
2017-01-01T12:30:53.052Z,71.06
2017-01-01T12:31:52.937Z,70.97
2017-01-01T12:32:53.076Z,70.87
2017-01-01T12:33:53.127Z,71.44
2017-01-01T12:34:53.987Z,71.44
2017-01-01T12:35:53.070Z,71.25
2017-01-01T12:36:53.275Z,71.25
2017-01-01T12:37:53.306Z,71.44
2017-01-01T12:38:53.175Z,71.34
2017-01-01T12:39:53.083Z,71.62
2017-01-01T12:40:53.023Z,71.53
2017-01-01T12:41:53.044Z,71.25
2017-01-01T12:42:53.243Z,71.44
2017-01-01T12:43:53.141Z,71.25
2017-01-01T12:44:52.960Z,71.62
2017-01-01T12:45:53.088Z,71.34
2017-01-01T12:46:53.010Z,71.15
2017-01-01T12:47:52.971Z,71.15
2017-01-01T12:48:53.007Z,71.28
2017-01-01T12:49:52.920Z,71.28
2017-01-01T12:50:52.883Z,71.34
2017-01-01T12:51:53.012Z,71.19
2017-01-01T12:52:53.002Z,71.38
2017-01-01T12:53:52.961Z,71.34
2017-01-01T12:54:53.080Z,71.09
2017-01-01T12:55:52.999Z,71.19
2017-01-01T12:56:53.076Z,71.28
2017-01-01T12:57:53.036Z,71.09
2017-01-01T12:58:52.981Z,70.72
2017-01-01T12:59:53.110Z,71
2017-01-01T13:00:53.156Z,70.62
2017-01-01T13:01:53.073Z,70.05
2017-01-01T13:02:54.481Z,70.15
2017-01-01T13:03:53.122Z,70.62
2017-01-01T13:04:53.081Z,70.53
2017-01-01T13:05:53.002Z,70.81